createdAt,value
2018-04-25T00:01:21.504Z,16.41
2018-04-25T00:03:47.793Z,16.41
2018-04-25T00:06:14.073Z,16.33
2018-04-25T00:08:40.362Z,16.38
2018-04-25T00:11:06.610Z,16.38
2018-04-25T00:13:32.887Z,16.36
2018-04-25T00:15:59.255Z,16.37
2018-04-25T00:18:25.534Z,16.37
2018-04-25T00:20:51.778Z,16.36
2018-04-25T00:23:18.071Z,16.39
2018-04-25T00:25:44.335Z,16.40
2018-04-25T00:28:10.610Z,16.39
2018-04-25T00:30:36.847Z,16.30
2018-04-25T00:33:03.100Z,16.26
2018-04-25T00:35:29.379Z,16.23
2018-04-25T00:37:55.624Z,16.20
2018-04-25T00:40:21.898Z,16.23
2018-04-25T00:42:48.203Z,16.19
2018-04-25T00:45:14.504Z,16.13
2018-04-25T00:47:40.798Z,16.13
2018-04-25T00:50:07.151Z,16.10
2018-04-25T00:52:33.427Z,16.17
2018-04-25T00:54:59.695Z,16.25
2018-04-25T00:57:26.019Z,16.28
2018-04-25T00:59:52.290Z,16.35
2018-04-25T01:02:18.588Z,16.42
2018-04-25T01:04:44.874Z,16.44
2018-04-25T01:07:11.175Z,16.40
2018-04-25T01:09:37.444Z,16.49
2018-04-25T01:12:03.792Z,16.49
2018-04-25T01:14:30.060Z,16.55
2018-04-25T01:16:56.322Z,16.65
2018-04-25T01:19:22.623Z,16.74
2018-04-25T01:21:49.710Z,16.79
2018-04-25T01:24:16.004Z,16.84
2018-04-25T01:26:42.287Z,16.90
2018-04-25T01:29:08.599Z,16.97
2018-04-25T01:31:48.081Z,16.99
2018-04-25T01:34:18.363Z,16.95
2018-04-25T01:36:56.395Z,16.95
2018-04-25T01:39:43.247Z,16.96
2018-04-25T01:42:21.554Z,16.92
2018-04-25T01:44:51.818Z,16.91
2018-04-25T01:47:33.966Z,16.96
2018-04-25T04:21:19.535Z,15.92
2018-04-25T04:23:45.863Z,16.01
2018-04-25T04:26:12.112Z,16.05
2018-04-25T04:28:38.375Z,16.10
2018-04-25T04:31:04.591Z,16.10
2018-04-25T04:33:30.811Z,16.07
2018-04-25T04:35:57.054Z,16.22
2018-04-25T04:38:23.271Z,16.24
2018-04-25T04:40:49.485Z,16.29
2018-04-25T04:43:15.753Z,16.34
2018-04-25T04:45:41.978Z,16.42
2018-04-25T04:48:08.208Z,16.49
2018-04-25T04:50:34.466Z,16.45
2018-04-25T04:53:00.693Z,16.48
2018-04-25T04:55:26.919Z,16.66
2018-04-25T04:57:53.170Z,16.66
2018-04-25T05:00:19.399Z,16.66
2018-04-25T05:02:45.639Z,16.60
2018-04-25T05:05:11.902Z,16.69
2018-04-25T05:07:38.124Z,16.71
2018-04-25T05:10:04.376Z,16.87
2018-04-25T05:12:30.630Z,17.01
2018-04-25T05:14:56.934Z,16.98
2018-04-25T05:17:23.182Z,17.06
2018-04-25T05:19:49.444Z,17.21
2018-04-25T05:22:15.703Z,17.12
2018-04-25T05:24:41.977Z,17.35
2018-04-25T05:27:08.218Z,17.50
2018-04-25T05:29:34.448Z,17.62
2018-04-25T05:32:00.740Z,17.68
2018-04-25T05:34:26.983Z,17.75
2018-04-25T05:36:53.219Z,17.75
2018-04-25T05:39:19.444Z,17.59
2018-04-25T05:41:45.708Z,17.69
2018-04-25T05:44:11.934Z,17.79
2018-04-25T05:46:38.183Z,17.80
2018-04-25T05:49:04.447Z,17.91
2018-04-25T05:51:30.719Z,17.97
2018-04-25T05:53:56.951Z,18.13
2018-04-25T05:56:23.203Z,18.23
2018-04-25T05:58:49.439Z,18.15
2018-04-25T06:01:15.667Z,18.13
2018-04-25T06:03:41.918Z,18.14
2018-04-25T06:06:08.135Z,18.15
2018-04-25T06:08:34.362Z,18.59
2018-04-25T06:11:00.615Z,18.65
2018-04-25T06:13:26.835Z,18.80
2018-04-25T06:15:53.099Z,18.96
2018-04-25T06:18:19.363Z,18.73
2018-04-25T06:20:45.591Z,18.90
2018-04-25T06:23:11.842Z,19.02
2018-04-25T06:25:38.097Z,18.93
2018-04-25T06:28:04.322Z,18.98
2018-04-25T06:30:30.550Z,19.05
2018-04-25T06:32:56.807Z,19.33
2018-04-25T06:35:23.057Z,19.53
2018-04-25T06:37:49.304Z,19.41
2018-04-25T06:40:15.559Z,19.50
2018-04-25T06:42:41.787Z,19.61
2018-04-25T06:45:08.044Z,19.56
2018-04-25T06:47:34.315Z,19.62
2018-04-25T06:50:00.539Z,19.70
2018-04-25T06:52:26.767Z,19.51
2018-04-25T06:54:53.023Z,19.77
2018-04-25T06:57:19.263Z,20.08
2018-04-25T06:59:45.496Z,20.06
2018-04-25T07:02:11.751Z,19.98
2018-04-25T07:04:37.993Z,20.13
2018-04-25T07:07:04.242Z,20.30
2018-04-25T07:09:30.509Z,20.23
2018-04-25T07:11:56.743Z,20.53
2018-04-25T07:14:22.975Z,20.91
2018-04-25T07:16:49.233Z,20.93
2018-04-25T07:19:15.510Z,20.93
2018-04-25T07:21:41.739Z,20.81
2018-04-25T07:24:07.998Z,20.90
2018-04-25T07:26:34.235Z,21.00
2018-04-25T07:29:00.464Z,21.01
2018-04-25T07:31:26.729Z,21.22
2018-04-25T07:33:52.968Z,20.98
2018-04-25T07:36:19.201Z,21.00
2018-04-25T07:38:45.467Z,20.56
2018-04-25T07:41:11.698Z,20.75
2018-04-25T07:43:37.927Z,20.34
2018-04-25T07:46:04.195Z,20.52
2018-04-25T07:48:30.458Z,20.68
2018-04-25T07:50:56.688Z,20.88
2018-04-25T07:53:22.946Z,20.67
2018-04-25T07:55:49.191Z,20.59
2018-04-25T07:58:15.423Z,20.88
2018-04-25T08:00:41.699Z,21.16
2018-04-25T08:03:08.894Z,21.26
2018-04-25T08:05:35.122Z,21.21
2018-04-25T08:08:01.390Z,21.37
2018-04-25T08:10:27.647Z,21.82
2018-04-25T08:13:06.139Z,21.92
2018-04-25T08:15:44.743Z,22.60
2018-04-25T08:18:23.333Z,22.88
2018-04-25T08:34:14.463Z,24.13
2018-04-25T08:36:40.737Z,24.09
2018-04-25T08:39:06.995Z,24.85
2018-04-25T08:41:33.250Z,23.90
2018-04-25T08:43:59.480Z,24.23
2018-04-25T08:46:25.712Z,25.08
2018-04-25T08:48:52.067Z,24.73
2018-04-25T08:51:18.291Z,25.12
2018-04-25T08:53:44.522Z,25.52
2018-04-25T08:56:10.802Z,25.26
2018-04-25T08:58:37.027Z,24.92
2018-04-25T09:01:03.275Z,23.98
2018-04-25T09:03:29.624Z,24.57
2018-04-25T09:05:55.879Z,23.53
2018-04-25T09:08:22.103Z,22.88
2018-04-25T09:10:48.366Z,22.29
2018-04-25T09:13:14.662Z,22.08
2018-04-25T09:15:40.874Z,21.48
2018-04-25T09:18:07.143Z,21.21
2018-04-25T09:20:33.407Z,21.08
2018-04-25T09:22:59.643Z,20.75
2018-04-25T09:25:25.903Z,20.70
2018-04-25T09:27:52.134Z,20.90
2018-04-25T09:30:18.366Z,20.96
2018-04-25T09:32:44.631Z,20.68
2018-04-25T09:35:10.875Z,20.68
2018-04-25T09:37:37.115Z,20.81
2018-04-25T09:40:03.427Z,20.87
2018-04-25T09:42:29.655Z,21.60
2018-04-25T09:44:55.895Z,21.53
2018-04-25T09:47:22.163Z,21.70
2018-04-25T09:49:48.400Z,21.40
2018-04-25T09:52:14.631Z,21.53
2018-04-25T09:54:40.902Z,21.24
2018-04-25T09:57:07.147Z,20.81
2018-04-25T09:59:33.379Z,20.81
2018-04-25T10:02:02.591Z,20.94
2018-04-25T10:04:28.866Z,21.02
2018-04-25T10:06:55.099Z,21.02
2018-04-25T10:09:21.366Z,21.62
2018-04-25T10:11:47.625Z,21.91
2018-04-25T10:14:13.867Z,22.27
2018-04-25T10:16:40.137Z,23.55
2018-04-25T10:19:06.379Z,23.27
2018-04-25T10:21:32.652Z,23.23
2018-04-25T10:23:58.919Z,23.68
2018-04-25T10:26:25.187Z,23.30
2018-04-25T10:28:51.433Z,22.75
2018-04-25T10:31:17.783Z,22.45
2018-04-25T10:33:44.016Z,22.55
2018-04-25T10:36:10.259Z,22.26
2018-04-25T10:38:36.531Z,22.34
2018-04-25T10:41:09.898Z,23.35
2018-04-25T10:43:36.163Z,23.39
2018-04-25T10:46:02.411Z,22.44
2018-04-25T10:48:28.639Z,21.85
2018-04-25T10:50:54.910Z,21.65
2018-04-25T10:53:21.147Z,21.77
2018-04-25T10:55:47.382Z,21.74
2018-04-25T10:58:13.649Z,21.50
2018-04-25T11:00:39.893Z,21.33
2018-04-25T11:03:06.128Z,21.34
2018-04-25T11:05:32.387Z,21.29
2018-04-25T11:07:58.623Z,21.24
2018-04-25T11:10:24.871Z,21.25
2018-04-25T11:12:51.134Z,21.64
2018-04-25T11:15:17.366Z,21.74
2018-04-25T11:17:43.606Z,21.62
2018-04-25T11:20:09.926Z,21.98
2018-04-25T11:22:36.159Z,23.32
2018-04-25T11:25:02.403Z,23.47
2018-04-25T11:27:28.675Z,23.15
2018-04-25T11:29:54.902Z,22.61
2018-04-25T11:32:21.139Z,22.71
2018-04-25T11:34:47.403Z,22.07
2018-04-25T11:37:13.643Z,22.35
2018-04-25T11:39:39.877Z,22.12
2018-04-25T11:42:06.144Z,22.56
2018-04-25T11:44:32.383Z,23.40
2018-04-25T11:46:58.616Z,24.74
2018-04-25T11:49:24.870Z,24.64
2018-04-25T11:51:51.090Z,24.26
2018-04-25T11:54:17.329Z,25.19
2018-04-25T11:56:43.587Z,26.84
2018-04-25T11:59:09.819Z,28.23
2018-04-25T12:01:36.052Z,28.84
2018-04-25T12:04:02.386Z,28.56
2018-04-25T12:06:28.623Z,29.21
2018-04-25T12:08:54.850Z,28.54
2018-04-25T12:11:21.110Z,27.05
2018-04-25T12:13:47.399Z,27.50
2018-04-25T12:16:13.650Z,27.99
2018-04-25T12:18:39.979Z,27.00
2018-04-25T12:21:06.195Z,26.76
2018-04-25T12:23:32.430Z,27.95
2018-04-25T12:25:58.691Z,28.26
2018-04-25T12:28:24.925Z,28.41
2018-04-25T12:30:51.155Z,28.35
2018-04-25T12:33:17.419Z,27.73
2018-04-25T12:35:43.712Z,25.86
2018-04-25T12:38:09.908Z,24.43
2018-04-25T12:40:36.167Z,24.27
2018-04-25T12:43:02.414Z,23.76
2018-04-25T12:45:28.646Z,23.46
2018-04-25T12:47:54.906Z,22.70
2018-04-25T12:50:21.134Z,22.21
2018-04-25T12:52:47.371Z,21.89
2018-04-25T12:55:13.639Z,21.87
2018-04-25T12:57:39.956Z,21.48
2018-04-25T13:00:06.207Z,21.41
2018-04-25T13:02:39.435Z,21.26
2018-04-25T13:05:05.681Z,21.52
2018-04-25T13:07:31.912Z,21.89
2018-04-25T13:09:58.180Z,22.02
2018-04-25T13:12:24.407Z,22.52
2018-04-25T13:14:50.644Z,22.53
2018-04-25T13:17:16.930Z,22.68
2018-04-25T13:19:43.163Z,23.55
2018-04-25T13:22:09.409Z,23.37
2018-04-25T13:24:35.683Z,23.20
2018-04-25T13:27:01.923Z,22.79
2018-04-25T13:29:28.199Z,22.56
2018-04-25T13:31:54.465Z,22.52
2018-04-25T13:34:20.691Z,22.29
2018-04-25T13:36:46.927Z,21.95
2018-04-25T13:39:13.188Z,21.63
2018-04-25T13:41:39.424Z,21.58
2018-04-25T13:44:05.662Z,21.29
2018-04-25T13:46:31.965Z,21.10
2018-04-25T13:48:58.209Z,21.03
2018-04-25T13:51:24.438Z,20.91
2018-04-25T13:53:50.696Z,20.87
2018-04-25T13:56:16.935Z,20.52
2018-04-25T13:58:43.183Z,20.37
2018-04-25T14:01:09.439Z,19.53
2018-04-25T14:03:35.671Z,18.74
2018-04-25T14:06:01.933Z,17.91
2018-04-25T14:08:28.178Z,17.25
2018-04-25T14:10:54.439Z,16.74
2018-04-25T14:13:20.671Z,16.45
2018-04-25T14:15:46.936Z,16.43
2018-04-25T14:18:13.160Z,16.58
2018-04-25T14:20:39.423Z,16.67
2018-04-25T14:23:05.688Z,17.19
2018-04-25T14:25:31.911Z,17.57
2018-04-25T14:27:58.131Z,18.02
2018-04-25T14:30:24.480Z,18.17
2018-04-25T14:32:50.655Z,18.28
2018-04-25T14:35:16.915Z,18.33
2018-04-25T14:37:43.170Z,18.59
2018-04-25T14:40:09.394Z,18.69
2018-04-25T14:42:35.623Z,18.93
2018-04-25T14:45:01.892Z,19.19
2018-04-25T14:47:28.114Z,23.00
2018-04-25T14:49:54.343Z,25.34
2018-04-25T14:52:20.598Z,25.63
2018-04-25T14:54:46.827Z,24.28
2018-04-25T14:57:13.075Z,22.81
2018-04-25T14:59:39.347Z,22.38
2018-04-25T15:02:05.597Z,23.24
2018-04-25T15:04:31.848Z,21.88
2018-04-25T15:06:58.106Z,21.00
2018-04-25T15:09:24.344Z,20.34
2018-04-25T15:11:50.590Z,19.70
2018-04-25T15:14:16.851Z,19.42
2018-04-25T15:16:43.268Z,19.14
2018-04-25T15:19:09.682Z,18.92
2018-04-25T15:21:35.999Z,18.76
2018-04-25T15:24:02.252Z,18.75
2018-04-25T15:26:28.519Z,18.76
2018-04-25T15:28:54.774Z,18.63
2018-04-25T15:31:21.003Z,18.53
2018-04-25T15:33:47.226Z,18.43
2018-04-25T15:36:13.563Z,18.32
2018-04-25T15:38:39.756Z,18.23
2018-04-25T15:41:05.983Z,18.16
2018-04-25T15:43:32.250Z,18.05
2018-04-25T15:45:58.611Z,18.04
2018-04-25T15:48:24.875Z,18.19
2018-04-25T15:50:51.179Z,18.12
2018-04-25T15:53:17.456Z,18.02
2018-04-25T15:55:43.740Z,17.61
2018-04-25T15:58:10.026Z,17.41
2018-04-25T16:00:36.259Z,17.26
2018-04-25T16:03:02.733Z,17.15
2018-04-25T16:05:29.005Z,16.94
2018-04-25T16:07:56.330Z,16.54
2018-04-25T16:10:22.632Z,16.46
2018-04-25T16:12:48.891Z,16.24
2018-04-25T16:15:15.170Z,16.15
2018-04-25T16:17:48.306Z,16.18
2018-04-25T16:20:14.555Z,16.01
2018-04-25T16:22:40.809Z,15.97
2018-04-25T16:25:07.098Z,15.72
2018-04-25T16:27:33.318Z,15.67
2018-04-25T16:29:59.559Z,15.53
2018-04-25T16:32:25.835Z,15.47
2018-04-25T16:34:52.419Z,15.40
2018-04-25T16:37:18.707Z,15.54
2018-04-25T16:39:44.962Z,15.49
2018-04-25T16:42:11.186Z,15.56
2018-04-25T16:44:37.488Z,15.60
2018-04-25T16:47:03.763Z,15.80
2018-04-25T16:49:30.343Z,15.90
2018-04-25T16:51:56.753Z,16.01
2018-04-25T16:54:23.018Z,16.16
2018-04-25T16:56:49.440Z,16.35
2018-04-25T16:59:15.674Z,16.56
2018-04-25T17:01:42.079Z,16.71
2018-04-25T17:04:08.311Z,16.99
2018-04-25T17:06:34.834Z,17.29
2018-04-25T17:09:01.268Z,17.39
2018-04-25T17:11:27.727Z,17.47
2018-04-25T17:13:54.015Z,17.48
2018-04-25T17:16:20.290Z,17.49
2018-04-25T17:18:46.686Z,17.38
2018-04-25T17:21:12.966Z,17.17
2018-04-25T17:23:39.255Z,16.80
2018-04-25T17:26:05.812Z,16.70
2018-04-25T17:28:32.054Z,16.67
2018-04-25T17:30:58.314Z,16.55
2018-04-25T17:33:24.862Z,16.36
2018-04-25T17:35:51.090Z,16.26
2018-04-25T17:38:17.355Z,16.35
2018-04-25T17:40:43.925Z,16.30
2018-04-25T17:43:10.167Z,16.10
2018-04-25T17:45:36.626Z,15.88
2018-04-25T17:48:02.918Z,15.69
2018-04-25T17:50:29.142Z,15.58
2018-04-25T17:52:55.395Z,15.65
2018-04-25T17:55:21.966Z,15.53
2018-04-25T17:57:48.215Z,15.47
2018-04-25T18:00:14.495Z,15.58
2018-04-25T18:02:40.719Z,15.49
2018-04-25T18:05:06.959Z,15.33
2018-04-25T18:07:33.323Z,15.35
2018-04-25T18:09:59.569Z,15.44
2018-04-25T18:12:25.798Z,15.54
2018-04-25T18:14:52.067Z,15.56
2018-04-25T18:17:18.319Z,15.61
2018-04-25T18:19:44.539Z,15.54
2018-04-25T18:22:10.800Z,15.42
2018-04-25T18:24:37.081Z,15.40
2018-04-25T18:27:03.354Z,15.26
2018-04-25T18:29:29.646Z,15.40
2018-04-25T18:31:55.944Z,15.36
2018-04-25T18:34:22.199Z,15.38
2018-04-25T18:36:48.643Z,15.38
2018-04-25T18:39:14.987Z,15.45
2018-04-25T18:41:41.258Z,15.56
2018-04-25T18:44:07.625Z,15.74
2018-04-25T18:46:33.946Z,15.76
2018-04-25T18:49:00.535Z,15.86
2018-04-25T18:51:26.810Z,15.80
2018-04-25T18:53:53.035Z,15.83
2018-04-25T18:56:19.705Z,15.73
2018-04-25T18:58:46.251Z,15.57
2018-04-25T19:01:12.554Z,15.64
2018-04-25T19:03:38.871Z,15.43
2018-04-25T19:06:05.192Z,15.35
2018-04-25T19:08:31.480Z,15.22
2018-04-25T19:10:57.803Z,15.18
2018-04-25T19:13:24.226Z,15.12
2018-04-25T19:15:50.660Z,15.15
2018-04-25T19:18:16.897Z,15.22
2018-04-25T19:20:43.393Z,15.25
2018-04-25T19:23:09.639Z,15.19
2018-04-25T19:25:36.144Z,15.29
2018-04-25T19:28:02.444Z,15.27
2018-04-25T19:30:28.659Z,15.23
2018-04-25T19:32:54.922Z,15.16
2018-04-25T19:35:21.182Z,15.18
2018-04-25T19:37:47.440Z,15.05
2018-04-25T19:40:13.969Z,15.08
2018-04-25T19:42:40.237Z,15.05
2018-04-25T19:45:06.653Z,14.94
2018-04-25T19:47:33.132Z,14.99
2018-04-25T19:49:59.466Z,15.04
2018-04-25T19:52:25.768Z,15.06
2018-04-25T19:54:52.078Z,15.11
2018-04-25T19:57:18.425Z,15.00
2018-04-25T19:59:44.683Z,14.77
2018-04-25T20:02:10.912Z,14.72
2018-04-25T20:04:37.338Z,14.79
2018-04-25T20:07:03.678Z,14.79
2018-04-25T20:09:29.903Z,14.75
2018-04-25T20:11:56.425Z,14.65
2018-04-25T20:14:22.674Z,14.71
2018-04-25T20:16:49.036Z,14.42
2018-04-25T20:19:15.385Z,14.38
2018-04-25T20:21:41.838Z,14.45
2018-04-25T20:24:08.200Z,14.61
2018-04-25T20:26:34.474Z,14.74
2018-04-25T20:29:00.935Z,14.56
2018-04-25T20:31:27.310Z,14.63
2018-04-25T20:33:53.744Z,14.60
2018-04-25T20:36:20.045Z,14.44
2018-04-25T20:38:46.431Z,14.52
2018-04-25T20:41:12.690Z,14.70
2018-04-25T20:43:39.169Z,14.67
2018-04-25T20:46:05.708Z,14.72
2018-04-25T20:48:32.130Z,14.78
2018-04-25T20:50:58.530Z,14.72
2018-04-25T20:53:25.016Z,14.85
2018-04-25T20:55:51.278Z,14.96
2018-04-25T20:58:17.646Z,15.09
2018-04-25T21:00:44.019Z,15.22
2018-04-25T21:03:10.686Z,15.28
2018-04-25T21:05:37.288Z,15.36
2018-04-25T21:08:03.783Z,15.41
2018-04-25T21:10:30.406Z,15.45
2018-04-25T21:12:56.670Z,15.49
2018-04-25T21:15:23.053Z,15.52
2018-04-25T21:17:49.360Z,15.59
2018-04-25T21:20:15.756Z,15.61
2018-04-25T21:22:41.999Z,15.53
2018-04-25T21:25:08.275Z,15.41
2018-04-25T21:27:34.833Z,15.45
2018-04-25T21:30:01.299Z,15.48
2018-04-25T21:32:27.891Z,15.30
2018-04-25T21:34:54.163Z,15.11
2018-04-25T21:37:20.556Z,15.10
2018-04-25T21:39:46.819Z,14.97
2018-04-25T21:42:13.338Z,14.84
2018-04-25T21:44:39.687Z,14.78
2018-04-25T21:47:05.986Z,14.61
2018-04-25T21:49:32.395Z,14.63
2018-04-25T21:51:58.636Z,14.48
2018-04-25T21:54:25.163Z,14.47
2018-04-25T21:56:51.452Z,14.37
2018-04-25T21:59:17.981Z,14.29
2018-04-25T22:01:44.339Z,14.09
2018-04-25T22:04:10.709Z,14.05
2018-04-25T22:06:36.965Z,13.97
2018-04-25T22:09:03.324Z,14.09
2018-04-25T22:11:30.991Z,13.97
2018-04-25T22:13:57.500Z,13.83
2018-04-25T22:16:23.841Z,13.74
2018-04-25T22:18:50.167Z,13.66
2018-04-25T22:21:16.432Z,13.78
2018-04-25T22:23:42.737Z,13.96
2018-04-25T22:26:09.102Z,13.98
2018-04-25T22:28:35.375Z,14.09
2018-04-25T22:31:02.856Z,13.87
2018-04-25T22:33:29.141Z,13.68
2018-04-25T22:35:55.463Z,13.63
2018-04-25T22:38:21.835Z,13.61
2018-04-25T22:40:48.156Z,13.55
2018-04-25T22:43:14.642Z,13.48
2018-04-25T22:45:40.968Z,13.48
2018-04-25T22:48:07.455Z,13.44
2018-04-25T22:50:33.718Z,13.46
2018-04-25T22:53:00.021Z,13.36
2018-04-25T22:55:27.492Z,13.38
2018-04-25T22:57:53.776Z,13.38
2018-04-25T23:00:20.187Z,13.47
2018-04-25T23:02:46.563Z,13.45
2018-04-25T23:05:13.048Z,13.42
2018-04-25T23:07:39.456Z,13.35
2018-04-25T23:10:05.719Z,13.40
2018-04-25T23:12:32.207Z,13.44
2018-04-25T23:14:58.508Z,13.46
2018-04-25T23:17:25.058Z,13.43
2018-04-25T23:19:51.374Z,13.35
2018-04-25T23:22:17.959Z,13.39
2018-04-25T23:24:44.304Z,13.43
2018-04-25T23:27:10.568Z,13.44
2018-04-25T23:29:36.986Z,13.41
2018-04-25T23:32:03.320Z,13.40
2018-04-25T23:34:29.576Z,13.35
2018-04-25T23:36:56.206Z,13.26
2018-04-25T23:39:22.809Z,13.28
2018-04-25T23:41:49.279Z,13.20
2018-04-25T23:44:15.566Z,13.23
2018-04-25T23:46:42.056Z,13.19
2018-04-25T23:49:08.313Z,13.09
2018-04-25T23:51:34.727Z,13.09
2018-04-25T23:54:01.059Z,13.07
2018-04-25T23:56:27.491Z,13.24
2018-04-25T23:58:53.812Z,13.26
